Time,TemperatureF,DewpointF,PressureIn,WindDirection,WindDirectionDegrees,WindSpeedMPH,WindSpeedGustMPH,Humidity,HourlyPrecipIn,Conditions,Clouds,dailyrainin,SoftwareType,DateUTC
2013-05-13 00:01:00,38.3,35.6,29.92,West,270,2.4,3.5,90,0.04,RA,BKN,0.00,WeatherDisplay:10.37,2013-05-13 04:01:00,
2013-05-13 00:06:00,38.3,35.6,29.92,West,270,2.0,3.5,90,0.03,RA,BKN,0.00,WeatherDisplay:10.37,2013-05-13 04:06:00,
2013-05-13 00:11:00,38.5,35.3,29.91,SW,225,3.6,4.6,88,0.04,RA,BKN,0.01,WeatherDisplay:10.37,2013-05-13 04:11:00,
2013-05-13 00:16:00,38.7,35.7,29.91,SSW,202,2.3,3.5,89,0.03,RA,BKN,0.01,WeatherDisplay:10.37,2013-05-13 04:16:00,
2013-05-13 00:21:00,38.7,35.5,29.91,West,270,2.1,4.6,88,0.03,,BKN,0.01,WeatherDisplay:10.37,2013-05-13 04:21:00,
2013-05-13 00:26:00,38.8,35.3,29.91,West,270,3.5,4.6,87,0.02,,BKN,0.01,WeatherDisplay:10.37,2013-05-13 04:26:00,
2013-05-13 00:31:00,38.8,35.3,29.91,West,270,3.2,3.7,87,0.02,,BKN,0.01,WeatherDisplay:10.37,2013-05-13 04:31:00,
2013-05-13 00:36:00,39.2,35.7,29.92,West,270,3.3,5.8,87,0.02,,BKN,0.01,WeatherDisplay:10.37,2013-05-13 04:36:00,
2013-05-13 00:41:00,39.2,36.2,29.92,West,270,2.2,2.3,89,0.02,,BKN,0.01,WeatherDisplay:10.37,2013-05-13 04:41:00,
2013-05-13 00:46:00,39.0,35.5,29.92,West,270,3.6,5.8,87,0.01,,BKN,0.01,WeatherDisplay:10.37,2013-05-13 04:46:00,
2013-05-13 00:51:00,39.2,35.1,29.92,SSW,202,3.7,5.8,85,0.01,,BKN,0.01,WeatherDisplay:10.37,2013-05-13 04:51:00,
2013-05-13 00:56:00,39.2,35.1,29.92,WNW,292,3.6,4.2,85,0.01,,BKN,0.01,WeatherDisplay:10.37,2013-05-13 04:56:00,
2013-05-13 01:01:00,39.2,35.1,29.92,West,270,2.7,3.5,85,0.02,RA,BKN,0.02,WeatherDisplay:10.37,2013-05-13 05:01:00,
2013-05-13 01:06:00,39.2,35.1,29.92,West,270,3.0,3.5,85,0.02,RA,BKN,0.02,WeatherDisplay:10.37,2013-05-13 05:06:00,
2013-05-13 01:11:00,39.6,34.6,29.92,West,270,5.0,5.8,82,0.01,,BKN,0.02,WeatherDisplay:10.37,2013-05-13 05:11:00,
2013-05-13 01:16:00,39.7,34.3,29.92,WNW,292,3.2,4.6,81,0.01,,BKN,0.02,WeatherDisplay:10.37,2013-05-13 05:16:00,
2013-05-13 01:21:00,39.7,34.3,29.92,West,270,5.7,6.9,81,0.01,,BKN,0.02,WeatherDisplay:10.37,2013-05-13 05:21:00,
2013-05-13 01:26:00,39.7,34.0,29.92,WNW,292,4.7,10.4,80,0.01,,BKN,0.02,WeatherDisplay:10.37,2013-05-13 05:26:00,
2013-05-13 01:31:00,39.7,34.0,29.92,West,270,3.4,4.6,80,0.01,,BKN,0.02,WeatherDisplay:10.37,2013-05-13 05:31:00,
2013-05-13 01:36:00,39.7,33.7,29.92,West,270,6.2,6.9,79,0.01,,BKN,0.02,WeatherDisplay:10.37,2013-05-13 05:36:00,
2013-05-13 01:41:00,39.7,34.3,29.92,NW,315,4.2,5.8,81,0.01,,BKN,0.02,WeatherDisplay:10.37,2013-05-13 05:41:00,
2013-05-13 01:46:00,39.7,34.0,29.92,West,270,3.2,4.6,80,0.01,,BKN,0.02,WeatherDisplay:10.37,2013-05-13 05:46:00,
2013-05-13 01:51:00,39.7,34.3,29.92,West,270,3.3,4.6,81,0.01,,BKN,0.02,WeatherDisplay:10.37,2013-05-13 05:51:00,
2013-05-13 01:56:00,39.7,34.7,29.92,WNW,292,3.2,4.6,82,0.01,,BKN,0.02,WeatherDisplay:10.37,2013-05-13 05:56:00,
2013-05-13 02:01:00,39.7,34.7,29.92,WNW,292,3.8,4.6,82,0.00,,BKN,0.02,WeatherDisplay:10.37,2013-05-13 06:01:00,
2013-05-13 02:06:00,39.6,34.9,29.92,West,270,3.3,4.6,83,0.00,,BKN,0.02,WeatherDisplay:10.37,2013-05-13 06:06:00,
2013-05-13 02:11:00,39.6,34.9,29.92,WSW,248,2.2,3.5,83,0.00,,BKN,0.02,WeatherDisplay:10.37,2013-05-13 06:11:00,
2013-05-13 02:16:00,39.6,35.2,29.92,NW,315,4.2,5.8,84,0.00,,BKN,0.02,WeatherDisplay:10.37,2013-05-13 06:16:00,
2013-05-13 02:21:00,39.6,35.2,29.92,West,270,2.7,3.2,84,0.00,,BKN,0.02,WeatherDisplay:10.37,2013-05-13 06:21:00,
2013-05-13 02:26:00,39.4,35.3,29.93,West,270,1.1,2.3,85,0.00,,BKN,0.02,WeatherDisplay:10.37,2013-05-13 06:26:00,
2013-05-13 02:31:00,39.4,34.4,29.93,WNW,292,5.5,6.9,82,0.00,,BKN,0.02,WeatherDisplay:10.37,2013-05-13 06:31:00,
2013-05-13 02:36:00,39.4,33.1,29.93,West,270,5.2,5.8,78,0.00,,BKN,0.02,WeatherDisplay:10.37,2013-05-13 06:36:00,
2013-05-13 02:41:00,39.6,33.3,29.93,West,270,3.8,5.8,78,0.00,,BKN,0.02,WeatherDisplay:10.37,2013-05-13 06:41:00,
2013-05-13 02:46:00,39.6,32.0,29.93,West,270,5.8,6.3,74,0.00,,BKN,0.02,WeatherDisplay:10.37,2013-05-13 06:46:00,
2013-05-13 02:51:00,39.6,33.0,29.93,West,270,4.9,6.3,77,0.00,,BKN,0.02,WeatherDisplay:10.37,2013-05-13 06:51:00,
2013-05-13 02:56:00,39.6,33.3,29.93,West,270,2.5,3.5,78,0.00,,BKN,0.02,WeatherDisplay:10.37,2013-05-13 06:56:00,
2013-05-13 03:01:00,39.6,32.7,29.93,WNW,292,4.4,4.7,76,0.00,,BKN,0.02,WeatherDisplay:10.37,2013-05-13 07:01:00,
2013-05-13 03:06:00,39.7,32.8,29.93,West,270,3.2,4.6,76,0.00,,BKN,0.02,WeatherDisplay:10.37,2013-05-13 07:06:00,
2013-05-13 03:11:00,39.7,32.4,29.93,West,270,4.6,5.8,75,0.00,,BKN,0.02,WeatherDisplay:10.37,2013-05-13 07:11:00,
2013-05-13 03:16:00,39.6,32.3,29.93,West,270,4.0,5.8,75,0.00,,BKN,0.02,WeatherDisplay:10.37,2013-05-13 07:16:00,
2013-05-13 03:21:00,39.6,32.7,29.93,West,270,4.0,5.8,76,0.00,,BKN,0.02,WeatherDisplay:10.37,2013-05-13 07:21:00,
2013-05-13 03:26:00,39.6,32.3,29.93,West,270,3.2,4.6,75,0.00,,BKN,0.02,WeatherDisplay:10.37,2013-05-13 07:26:00,
2013-05-13 03:31:00,39.6,32.3,29.93,West,270,4.6,7.3,75,0.00,,BKN,0.02,WeatherDisplay:10.37,2013-05-13 07:31:00,
2013-05-13 03:36:00,39.6,32.7,29.93,WNW,292,3.8,4.6,76,0.00,,BKN,0.02,WeatherDisplay:10.37,2013-05-13 07:36:00,
2013-05-13 03:41:00,39.6,32.7,29.93,NW,315,3.6,9.2,76,0.00,,BKN,0.02,WeatherDisplay:10.37,2013-05-13 07:41:00,
2013-05-13 03:46:00,39.6,32.3,29.93,West,270,5.0,6.3,75,0.00,,BKN,0.02,WeatherDisplay:10.37,2013-05-13 07:46:00,
2013-05-13 03:51:00,39.6,32.7,29.93,West,270,4.2,4.6,76,0.00,,BKN,0.02,WeatherDisplay:10.37,2013-05-13 07:51:00,
2013-05-13 03:56:00,39.6,32.7,29.93,West,270,2.4,5.8,76,0.00,,BKN,0.02,WeatherDisplay:10.37,2013-05-13 07:56:00,
2013-05-13 04:01:00,39.6,33.0,29.93,NW,315,3.9,5.8,77,0.00,,BKN,0.02,WeatherDisplay:10.37,2013-05-13 08:01:00,
2013-05-13 04:06:00,39.6,33.0,29.93,NNE,22,2.9,3.5,77,0.00,,BKN,0.02,WeatherDisplay:10.37,2013-05-13 08:06:00,
2013-05-13 04:11:00,39.4,32.5,29.94,West,270,4.0,4.6,76,0.00,,BKN,0.02,WeatherDisplay:10.37,2013-05-13 08:11:00,
2013-05-13 04:16:00,39.4,32.8,29.94,West,270,3.7,3.7,77,0.00,,BKN,0.02,WeatherDisplay:10.37,2013-05-13 08:16:00,
2013-05-13 04:21:00,39.4,32.8,29.94,West,270,3.3,4.6,77,0.00,,BKN,0.02,WeatherDisplay:10.37,2013-05-13 08:21:00,
2013-05-13 04:26:00,39.4,32.8,29.94,WNW,292,3.7,4.6,77,0.00,,BKN,0.02,WeatherDisplay:10.37,2013-05-13 08:26:00,
2013-05-13 04:31:00,39.2,31.9,29.94,WNW,292,5.9,5.9,75,0.00,,BKN,0.02,WeatherDisplay:10.37,2013-05-13 08:31:00,
2013-05-13 04:36:00,39.2,32.3,29.94,West,270,3.6,3.6,76,0.00,,BKN,0.02,WeatherDisplay:10.37,2013-05-13 08:36:00,
2013-05-13 04:41:00,39.4,32.1,29.94,NW,315,3.1,6.9,75,0.00,,BKN,0.02,WeatherDisplay:10.37,2013-05-13 08:41:00,
2013-05-13 04:46:00,39.4,32.5,29.94,West,270,2.6,4.2,76,0.00,,BKN,0.02,WeatherDisplay:10.37,2013-05-13 08:46:00,
2013-05-13 04:51:00,39.0,31.4,29.94,WSW,248,4.1,6.8,74,0.00,,BKN,0.02,WeatherDisplay:10.37,2013-05-13 08:51:00,
2013-05-13 04:56:00,38.7,31.1,29.94,West,270,3.2,4.7,74,0.00,,BKN,0.02,WeatherDisplay:10.37,2013-05-13 08:56:00,
2013-05-13 05:01:00,38.5,30.9,29.94,WSW,248,4.9,7.3,74,0.00,,BKN,0.02,WeatherDisplay:10.37,2013-05-13 09:01:00,
2013-05-13 05:06:00,38.5,30.9,29.94,West,270,4.3,5.3,74,0.00,,BKN,0.02,WeatherDisplay:10.37,2013-05-13 09:06:00,
2013-05-13 05:11:00,38.5,30.9,29.95,West,270,3.9,8.1,74,0.00,,BKN,0.02,WeatherDisplay:10.37,2013-05-13 09:11:00,
2013-05-13 05:17:00,38.5,31.3,29.95,West,270,2.8,3.5,75,0.00,,BKN,0.02,WeatherDisplay:10.37,2013-05-13 09:17:00,
2013-05-13 05:22:00,38.5,30.6,29.95,WNW,292,4.2,8.1,73,0.00,,BKN,0.02,WeatherDisplay:10.37,2013-05-13 09:22:00,
2013-05-13 05:27:00,38.7,31.1,29.95,West,270,3.9,5.3,74,0.00,,BKN,0.02,WeatherDisplay:10.37,2013-05-13 09:27:00,
2013-05-13 05:32:00,38.7,31.1,29.95,WNW,292,3.5,4.6,74,0.00,,BKN,0.02,WeatherDisplay:10.37,2013-05-13 09:32:00,
2013-05-13 05:37:00,38.7,30.8,29.95,WNW,292,5.3,8.1,73,0.00,,BKN,0.02,WeatherDisplay:10.37,2013-05-13 09:37:00,
2013-05-13 05:42:00,38.7,31.1,29.95,West,270,5.1,8.8,74,0.00,,BKN,0.02,WeatherDisplay:10.37,2013-05-13 09:42:00,
2013-05-13 05:47:00,38.7,30.8,29.95,NW,315,4.3,6.9,73,0.00,,BKN,0.02,WeatherDisplay:10.37,2013-05-13 09:47:00,
2013-05-13 05:52:00,38.7,31.1,29.96,West,270,3.0,3.5,74,0.00,,BKN,0.02,WeatherDisplay:10.37,2013-05-13 09:52:00,
2013-05-13 05:57:00,38.7,31.1,29.96,West,270,4.7,5.8,74,0.00,,BKN,0.02,WeatherDisplay:10.37,2013-05-13 09:57:00,
2013-05-13 06:02:00,38.7,31.1,29.96,West,270,4.2,5.8,74,0.00,,BKN,0.02,WeatherDisplay:10.37,2013-05-13 10:02:00,
2013-05-13 06:07:00,38.7,31.5,29.96,West,270,2.7,3.5,75,0.00,,BKN,0.02,WeatherDisplay:10.37,2013-05-13 10:07:00,
2013-05-13 06:12:00,38.7,31.5,29.97,WNW,292,3.0,5.8,75,0.00,,BKN,0.02,WeatherDisplay:10.37,2013-05-13 10:12:00,
2013-05-13 06:17:00,38.7,31.8,29.97,West,270,3.0,3.5,76,0.00,,BKN,0.02,WeatherDisplay:10.37,2013-05-13 10:17:00,
2013-05-13 06:22:00,38.7,32.1,29.97,WNW,292,2.9,3.7,77,0.00,,BKN,0.02,WeatherDisplay:10.37,2013-05-13 10:22:00,
2013-05-13 06:27:00,38.7,31.8,29.97,West,270,2.1,5.8,76,0.00,,BKN,0.02,WeatherDisplay:10.37,2013-05-13 10:27:00,
2013-05-13 06:32:00,38.7,31.8,29.97,WNW,292,3.1,3.5,76,0.00,,BKN,0.02,WeatherDisplay:10.37,2013-05-13 10:32:00,
2013-05-13 06:37:00,38.7,31.5,29.97,West,270,3.2,4.6,75,0.00,,BKN,0.02,WeatherDisplay:10.37,2013-05-13 10:37:00,
2013-05-13 06:42:00,38.7,31.8,29.97,SW,225,2.0,2.3,76,0.00,,BKN,0.02,WeatherDisplay:10.37,2013-05-13 10:42:00,
2013-05-13 06:47:00,38.8,31.9,29.97,West,270,1.2,3.2,76,0.00,,BKN,0.02,WeatherDisplay:10.37,2013-05-13 10:47:00,
2013-05-13 06:52:00,38.8,31.9,29.97,West,270,2.5,3.2,76,0.00,,BKN,0.02,WeatherDisplay:10.37,2013-05-13 10:52:00,
2013-05-13 06:57:00,38.8,31.6,29.97,West,270,2.6,3.5,75,0.00,,BKN,0.02,WeatherDisplay:10.37,2013-05-13 10:57:00,
2013-05-13 07:02:00,39.0,32.4,29.98,SE,135,2.2,3.5,77,0.00,,BKN,0.02,WeatherDisplay:10.37,2013-05-13 11:02:00,
2013-05-13 07:07:00,39.0,31.7,29.98,SSW,202,3.0,3.5,75,0.00,,BKN,0.02,WeatherDisplay:10.37,2013-05-13 11:07:00,
2013-05-13 07:12:00,39.2,31.6,29.99,WNW,292,4.8,6.9,74,0.00,,BKN,0.02,WeatherDisplay:10.37,2013-05-13 11:12:00,
2013-05-13 07:17:00,39.4,32.1,29.99,WNW,292,2.9,3.5,75,0.00,,BKN,0.02,WeatherDisplay:10.37,2013-05-13 11:17:00,
2013-05-13 07:22:00,39.4,31.5,29.99,WNW,292,4.9,5.8,73,0.00,,BKN,0.02,WeatherDisplay:10.37,2013-05-13 11:22:00,
2013-05-13 07:27:00,39.4,31.5,29.98,WNW,292,4.5,5.8,73,0.00,,BKN,0.02,WeatherDisplay:10.37,2013-05-13 11:27:00,
2013-05-13 07:32:00,39.6,32.7,29.98,WNW,292,2.1,3.7,76,0.00,,BKN,0.02,WeatherDisplay:10.37,2013-05-13 11:32:00,
2013-05-13 07:37:00,39.6,32.0,29.99,WNW,292,3.2,4.6,74,0.00,,BKN,0.02,WeatherDisplay:10.37,2013-05-13 11:37:00,
2013-05-13 07:42:00,39.7,32.4,29.99,WNW,292,3.0,3.7,75,0.00,,BKN,0.02,WeatherDisplay:10.37,2013-05-13 11:42:00,
2013-05-13 07:47:00,39.7,32.1,29.99,WNW,292,4.5,5.8,74,0.00,,BKN,0.02,WeatherDisplay:10.37,2013-05-13 11:47:00,
2013-05-13 07:52:00,39.7,31.8,29.99,West,270,4.2,4.6,73,0.00,,BKN,0.02,WeatherDisplay:10.37,2013-05-13 11:52:00,
2013-05-13 07:57:00,40.1,32.5,29.99,West,270,2.9,3.5,74,0.00,,BKN,0.02,WeatherDisplay:10.37,2013-05-13 11:57:00,
2013-05-13 08:02:00,40.3,33.0,29.99,WNW,292,3.0,3.7,75,0.00,,BKN,0.02,WeatherDisplay:10.37,2013-05-13 12:02:00,
2013-05-13 08:07:00,40.3,32.0,29.99,West,270,3.5,4.6,72,0.00,,BKN,0.02,WeatherDisplay:10.37,2013-05-13 12:07:00,
2013-05-13 08:12:00,40.3,31.6,30.00,West,270,4.6,6.9,71,0.00,,BKN,0.02,WeatherDisplay:10.37,2013-05-13 12:12:00,
2013-05-13 08:17:00,40.3,32.3,30.00,NNW,338,2.7,4.6,73,0.00,,BKN,0.02,WeatherDisplay:10.37,2013-05-13 12:17:00,
2013-05-13 08:22:00,40.3,31.6,30.00,West,270,3.5,5.8,71,0.00,,BKN,0.02,WeatherDisplay:10.37,2013-05-13 12:22:00,
2013-05-13 08:27:00,40.3,32.0,29.99,West,270,4.6,4.6,72,0.00,,BKN,0.02,WeatherDisplay:10.37,2013-05-13 12:27:00,
2013-05-13 08:32:00,40.5,32.2,29.99,WNW,292,3.3,4.2,72,0.00,,BKN,0.02,WeatherDisplay:10.37,2013-05-13 12:32:00,
2013-05-13 08:37:00,40.5,32.2,30.00,West,270,3.3,4.6,72,0.00,,BKN,0.02,WeatherDisplay:10.37,2013-05-13 12:37:00,
2013-05-13 08:42:00,40.5,31.8,30.00,WSW,248,3.4,5.8,71,0.00,,BKN,0.02,WeatherDisplay:10.37,2013-05-13 12:42:00,
2013-05-13 08:47:00,40.5,31.8,30.01,West,270,4.3,5.8,71,0.00,,BKN,0.02,WeatherDisplay:10.37,2013-05-13 12:47:00,
2013-05-13 08:52:00,40.6,32.3,30.01,NW,315,2.5,2.7,72,0.00,,BKN,0.02,WeatherDisplay:10.37,2013-05-13 12:52:00,
2013-05-13 08:57:00,40.8,31.8,30.01,NNW,338,5.4,5.8,70,0.00,,BKN,0.02,WeatherDisplay:10.37,2013-05-13 12:57:00,
2013-05-13 09:02:00,41.2,32.9,30.01,WNW,292,3.6,4.6,72,0.00,,BKN,0.02,WeatherDisplay:10.37,2013-05-13 13:02:00,
2013-05-13 09:07:00,41.2,32.2,30.01,West,270,4.4,5.3,70,0.00,,BKN,0.02,WeatherDisplay:10.37,2013-05-13 13:07:00,
2013-05-13 09:12:00,41.2,32.5,30.01,West,270,5.3,6.8,71,0.00,,BKN,0.02,WeatherDisplay:10.37,2013-05-13 13:12:00,
2013-05-13 09:17:00,41.4,32.3,30.01,West,270,5.0,5.8,70,0.00,,BKN,0.02,WeatherDisplay:10.37,2013-05-13 13:17:00,
2013-05-13 09:22:00,41.7,33.0,30.01,West,270,4.7,5.8,71,0.00,,BKN,0.02,WeatherDisplay:10.37,2013-05-13 13:22:00,
2013-05-13 09:27:00,41.5,32.8,30.02,SE,135,4.1,5.8,71,0.00,,BKN,0.02,WeatherDisplay:10.37,2013-05-13 13:27:00,
2013-05-13 09:32:00,41.5,32.4,30.02,WNW,292,5.9,6.9,70,0.00,,BKN,0.02,WeatherDisplay:10.37,2013-05-13 13:32:00,
2013-05-13 09:37:00,41.4,32.7,30.02,NNW,338,5.0,6.8,71,0.00,,BKN,0.02,WeatherDisplay:10.37,2013-05-13 13:37:00,
2013-05-13 09:42:00,41.2,32.2,30.02,WNW,292,4.2,4.6,70,0.00,,BKN,0.02,WeatherDisplay:10.37,2013-05-13 13:42:00,
2013-05-13 09:47:00,41.2,32.5,30.02,WNW,292,4.6,5.8,71,0.00,,BKN,0.02,WeatherDisplay:10.37,2013-05-13 13:47:00,
2013-05-13 09:52:00,41.4,32.7,30.02,West,270,5.4,8.8,71,0.00,,BKN,0.02,WeatherDisplay:10.37,2013-05-13 13:52:00,
2013-05-13 09:57:00,41.4,32.7,30.02,WNW,292,3.6,4.6,71,0.00,,BKN,0.02,WeatherDisplay:10.37,2013-05-13 13:57:00,
2013-05-13 10:02:00,41.4,32.7,30.03,WNW,292,3.7,3.7,71,0.00,,BKN,0.02,WeatherDisplay:10.37,2013-05-13 14:02:00,
2013-05-13 10:07:00,41.4,32.7,30.03,West,270,3.1,4.6,71,0.00,,BKN,0.02,WeatherDisplay:10.37,2013-05-13 14:07:00,
2013-05-13 10:12:00,41.4,32.7,30.03,NW,315,3.8,4.7,71,0.00,,BKN,0.02,WeatherDisplay:10.37,2013-05-13 14:12:00,
2013-05-13 10:17:00,41.4,32.3,30.03,NW,315,5.0,8.1,70,0.00,,BKN,0.02,WeatherDisplay:10.37,2013-05-13 14:17:00,
2013-05-13 10:22:00,41.4,33.0,30.03,NW,315,3.3,4.6,72,0.00,,BKN,0.02,WeatherDisplay:10.37,2013-05-13 14:22:00,
2013-05-13 10:27:00,41.5,33.1,30.04,NW,315,2.6,3.5,72,0.00,,BKN,0.02,WeatherDisplay:10.37,2013-05-13 14:27:00,
2013-05-13 10:32:00,41.4,33.4,30.04,NW,315,3.7,5.8,73,0.00,,BKN,0.02,WeatherDisplay:10.37,2013-05-13 14:32:00,
2013-05-13 10:37:00,41.5,33.5,30.04,ESE,112,2.9,5.8,73,0.00,,BKN,0.02,WeatherDisplay:10.37,2013-05-13 14:37:00,
2013-05-13 10:42:00,41.5,33.1,30.04,North,360,3.0,3.5,72,0.00,,BKN,0.02,WeatherDisplay:10.37,2013-05-13 14:42:00,
2013-05-13 10:47:00,42.1,32.7,30.05,WNW,292,3.1,4.6,69,0.00,,BKN,0.02,WeatherDisplay:10.37,2013-05-13 14:47:00,
2013-05-13 10:52:00,42.3,32.8,30.05,WNW,292,4.2,5.8,69,0.00,,BKN,0.02,WeatherDisplay:10.37,2013-05-13 14:52:00,
2013-05-13 10:57:00,42.4,32.2,30.05,West,270,6.1,6.9,67,0.00,,BKN,0.02,WeatherDisplay:10.37,2013-05-13 14:57:00,
2013-05-13 11:02:00,43.2,32.6,30.05,NNW,338,5.5,5.8,66,0.00,,BKN,0.02,WeatherDisplay:10.37,2013-05-13 15:02:00,
2013-05-13 11:07:00,43.7,33.5,30.05,West,270,3.5,5.3,67,0.00,,BKN,0.02,WeatherDisplay:10.37,2013-05-13 15:07:00,
2013-05-13 11:12:00,43.9,33.3,30.05,WNW,292,4.6,5.8,66,0.00,,BKN,0.02,WeatherDisplay:10.37,2013-05-13 15:12:00,
2013-05-13 11:17:00,44.4,32.6,30.05,WNW,292,2.2,3.5,63,0.00,,BKN,0.02,WeatherDisplay:10.37,2013-05-13 15:17:00,
2013-05-13 11:22:00,44.4,32.6,30.05,NW,315,7.1,9.2,63,0.00,,BKN,0.02,WeatherDisplay:10.37,2013-05-13 15:22:00,
2013-05-13 11:27:00,43.9,32.1,30.05,WNW,292,5.5,10.4,63,0.00,,BKN,0.02,WeatherDisplay:10.37,2013-05-13 15:27:00,
2013-05-13 11:32:00,44.1,32.3,30.05,WNW,292,4.2,6.8,63,0.00,,BKN,0.02,WeatherDisplay:10.37,2013-05-13 15:32:00,
2013-05-13 11:37:00,43.9,32.9,30.05,NW,315,3.1,8.1,65,0.00,,BKN,0.02,WeatherDisplay:10.37,2013-05-13 15:37:00,
2013-05-13 11:42:00,46.4,34.5,30.05,WNW,292,3.9,5.3,63,0.00,,BKN,0.02,WeatherDisplay:10.37,2013-05-13 15:42:00,
2013-05-13 11:47:00,46.6,33.0,30.06,West,270,6.1,6.1,59,0.00,,BKN,0.02,WeatherDisplay:10.37,2013-05-13 15:47:00,
2013-05-13 11:52:00,44.8,32.2,30.06,NW,315,4.8,9.2,61,0.00,,BKN,0.02,WeatherDisplay:10.37,2013-05-13 15:52:00,
2013-05-13 11:57:00,46.9,33.3,30.06,WNW,292,6.1,10.4,59,0.00,,BKN,0.02,WeatherDisplay:10.37,2013-05-13 15:57:00,
2013-05-13 12:02:00,46.6,34.3,30.05,West,270,4.2,5.8,62,0.00,,BKN,0.02,WeatherDisplay:10.37,2013-05-13 16:02:00,
2013-05-13 12:07:00,46.6,33.0,30.05,WNW,292,3.7,5.8,59,0.00,,BKN,0.02,WeatherDisplay:10.37,2013-05-13 16:07:00,
2013-05-13 12:12:00,46.0,32.5,30.06,NW,315,4.5,6.9,59,0.00,,BKN,0.02,WeatherDisplay:10.37,2013-05-13 16:12:00,
2013-05-13 12:18:00,45.5,32.8,30.06,WNW,292,4.6,5.8,61,0.00,,BKN,0.02,WeatherDisplay:10.37,2013-05-13 16:18:00,
2013-05-13 12:23:00,45.3,32.6,30.06,NW,315,5.1,6.3,61,0.00,,BKN,0.02,WeatherDisplay:10.37,2013-05-13 16:23:00,
2013-05-13 12:28:00,46.0,32.9,30.06,West,270,4.8,6.9,60,0.00,,BKN,0.02,WeatherDisplay:10.37,2013-05-13 16:28:00,
2013-05-13 12:33:00,46.2,31.8,30.06,WNW,292,5.7,5.7,57,0.00,,BKN,0.02,WeatherDisplay:10.37,2013-05-13 16:33:00,
2013-05-13 12:38:00,46.2,31.4,30.06,West,270,4.6,5.8,56,0.00,,BKN,0.02,WeatherDisplay:10.37,2013-05-13 16:38:00,
2013-05-13 12:43:00,46.0,32.5,30.06,NNW,338,3.7,4.6,59,0.00,,BKN,0.02,WeatherDisplay:10.37,2013-05-13 16:43:00,
2013-05-13 12:48:00,45.9,31.9,30.06,NW,315,4.5,5.8,58,0.00,,BKN,0.02,WeatherDisplay:10.37,2013-05-13 16:48:00,
2013-05-13 12:53:00,46.9,32.4,30.06,West,270,4.3,5.8,57,0.00,,BKN,0.02,WeatherDisplay:10.37,2013-05-13 16:53:00,
2013-05-13 12:58:00,46.8,31.5,30.06,NW,315,5.6,6.9,55,0.00,,BKN,0.02,WeatherDisplay:10.37,2013-05-13 16:58:00,
2013-05-13 13:03:00,47.1,32.2,30.06,NW,315,5.2,6.9,56,0.00,,BKN,0.02,WeatherDisplay:10.37,2013-05-13 17:03:00,
2013-05-13 13:08:00,48.0,33.5,30.06,NW,315,3.6,4.6,57,0.00,,BKN,0.02,WeatherDisplay:10.37,2013-05-13 17:08:00,
2013-05-13 13:13:00,49.8,32.9,30.06,NNE,22,5.0,9.2,52,0.00,,BKN,0.02,WeatherDisplay:10.37,2013-05-13 17:13:00,
2013-05-13 13:18:00,50.0,32.6,30.06,NW,315,4.0,5.8,51,0.00,,BKN,0.02,WeatherDisplay:10.37,2013-05-13 17:18:00,
2013-05-13 13:23:00,48.4,31.6,30.06,West,270,5.7,8.3,52,0.00,,BKN,0.02,WeatherDisplay:10.37,2013-05-13 17:23:00,
2013-05-13 13:28:00,47.5,30.7,30.06,WNW,292,4.2,6.9,52,0.00,,BKN,0.02,WeatherDisplay:10.37,2013-05-13 17:28:00,
2013-05-13 13:33:00,47.7,30.4,30.06,NNW,338,3.8,5.8,51,0.00,,BKN,0.02,WeatherDisplay:10.37,2013-05-13 17:33:00,
2013-05-13 13:38:00,48.2,32.3,30.05,NNW,338,5.0,5.8,54,0.00,,BKN,0.02,WeatherDisplay:10.37,2013-05-13 17:38:00,
2013-05-13 13:43:00,48.7,30.9,30.05,WNW,292,3.8,4.6,50,0.00,,BKN,0.02,WeatherDisplay:10.37,2013-05-13 17:43:00,
2013-05-13 13:48:00,47.5,31.7,30.05,West,270,6.2,8.1,54,0.00,,BKN,0.02,WeatherDisplay:10.37,2013-05-13 17:48:00,
2013-05-13 13:53:00,46.8,31.0,30.05,WNW,292,5.0,5.8,54,0.00,,BKN,0.02,WeatherDisplay:10.37,2013-05-13 17:53:00,
2013-05-13 13:58:00,46.4,31.5,30.05,NW,315,6.6,11.5,56,0.00,,BKN,0.02,WeatherDisplay:10.37,2013-05-13 17:58:00,
2013-05-13 14:03:00,46.4,31.1,30.06,West,270,4.1,5.8,55,0.00,,BKN,0.02,WeatherDisplay:10.37,2013-05-13 18:03:00,
2013-05-13 14:08:00,46.9,31.1,30.06,West,270,6.5,6.9,54,0.00,,BKN,0.02,WeatherDisplay:10.37,2013-05-13 18:08:00,
2013-05-13 14:13:00,47.1,31.3,30.06,West,270,5.5,6.9,54,0.00,,BKN,0.02,WeatherDisplay:10.37,2013-05-13 18:13:00,
2013-05-13 14:18:00,47.5,32.1,30.06,WNW,292,5.0,6.9,55,0.00,,BKN,0.02,WeatherDisplay:10.37,2013-05-13 18:18:00,
2013-05-13 14:23:00,48.4,32.5,30.06,NNW,338,4.3,6.9,54,0.00,,BKN,0.02,WeatherDisplay:10.37,2013-05-13 18:23:00,
2013-05-13 14:28:00,49.5,34.0,30.06,WNW,292,3.1,3.5,55,0.00,,BKN,0.02,WeatherDisplay:10.37,2013-05-13 18:28:00,
2013-05-13 14:33:00,48.4,32.5,30.06,NW,315,5.3,6.9,54,0.00,,BKN,0.02,WeatherDisplay:10.37,2013-05-13 18:33:00,
2013-05-13 14:38:00,49.1,33.2,30.05,NNW,338,4.4,5.8,54,0.00,,BKN,0.02,WeatherDisplay:10.37,2013-05-13 18:38:00,
2013-05-13 14:43:00,48.2,33.7,30.05,WNW,292,7.1,9.2,57,0.00,,BKN,0.02,WeatherDisplay:10.37,2013-05-13 18:43:00,
2013-05-13 14:48:00,47.3,34.1,30.06,West,270,6.0,6.9,60,0.00,,BKN,0.02,WeatherDisplay:10.37,2013-05-13 18:48:00,
2013-05-13 14:53:00,47.1,33.9,30.06,WNW,292,5.4,5.8,60,0.00,,BKN,0.02,WeatherDisplay:10.37,2013-05-13 18:53:00,
2013-05-13 14:58:00,48.2,34.1,30.06,West,270,6.8,8.1,58,0.00,,BKN,0.02,WeatherDisplay:10.37,2013-05-13 18:58:00,
2013-05-13 15:03:00,48.7,35.0,30.06,NW,315,6.6,6.9,59,0.00,,BKN,0.02,WeatherDisplay:10.37,2013-05-13 19:03:00,
2013-05-13 15:08:00,45.5,36.6,30.06,West,270,5.0,6.9,71,0.00,,BKN,0.02,WeatherDisplay:10.37,2013-05-13 19:08:00,
2013-05-13 15:13:00,43.9,36.5,30.07,WNW,292,3.6,4.6,75,0.00,,BKN,0.02,WeatherDisplay:10.37,2013-05-13 19:13:00,
2013-05-13 15:18:00,44.4,37.3,30.07,NNW,338,2.7,4.6,76,0.00,,BKN,0.02,WeatherDisplay:10.37,2013-05-13 19:18:00,
2013-05-13 15:23:00,45.9,38.4,30.07,South,180,1.9,3.7,75,0.00,,BKN,0.02,WeatherDisplay:10.37,2013-05-13 19:23:00,
2013-05-13 15:28:00,49.1,37.0,30.07,WNW,292,4.9,5.8,63,0.00,,BKN,0.02,WeatherDisplay:10.37,2013-05-13 19:28:00,
2013-05-13 15:33:00,50.2,38.5,30.07,NW,315,5.1,6.9,64,0.00,,BKN,0.02,WeatherDisplay:10.37,2013-05-13 19:33:00,
2013-05-13 15:38:00,49.3,36.4,30.06,NW,315,3.8,5.8,61,0.00,,BKN,0.02,WeatherDisplay:10.37,2013-05-13 19:38:00,
2013-05-13 15:43:00,47.8,36.2,30.06,NNE,22,4.1,4.6,64,0.00,,BKN,0.02,WeatherDisplay:10.37,2013-05-13 19:43:00,
2013-05-13 15:48:00,49.6,37.1,30.06,NW,315,2.8,5.8,62,0.00,,BKN,0.02,WeatherDisplay:10.37,2013-05-13 19:48:00,
2013-05-13 15:53:00,51.8,37.5,30.06,NW,315,3.5,4.6,58,0.00,,BKN,0.02,WeatherDisplay:10.37,2013-05-13 19:53:00,
2013-05-13 15:58:00,51.8,35.2,30.06,NNW,338,5.0,9.2,53,0.00,,BKN,0.02,WeatherDisplay:10.37,2013-05-13 19:58:00,
2013-05-13 16:03:00,51.6,34.5,30.06,WNW,292,5.0,6.9,52,0.00,,BKN,0.02,WeatherDisplay:10.37,2013-05-13 20:03:00,
2013-05-13 16:08:00,52.2,35.1,30.06,WNW,292,3.2,3.5,52,0.00,,BKN,0.02,WeatherDisplay:10.37,2013-05-13 20:08:00,
2013-05-13 16:13:00,52.7,35.1,30.05,NW,315,3.4,4.6,51,0.00,,BKN,0.02,WeatherDisplay:10.37,2013-05-13 20:13:00,
2013-05-13 16:18:00,53.6,35.4,30.05,WSW,248,6.3,6.3,50,0.00,,BKN,0.02,WeatherDisplay:10.37,2013-05-13 20:18:00,
2013-05-13 16:23:00,52.5,35.4,30.06,West,270,3.5,4.6,52,0.00,,BKN,0.02,WeatherDisplay:10.37,2013-05-13 20:23:00,
2013-05-13 16:28:00,50.4,33.9,30.06,WNW,292,4.7,5.8,53,0.00,,BKN,0.02,WeatherDisplay:10.37,2013-05-13 20:28:00,
2013-05-13 16:33:00,50.2,34.2,30.06,West,270,4.2,4.6,54,0.00,,BKN,0.02,WeatherDisplay:10.37,2013-05-13 20:33:00,
2013-05-13 16:38:00,51.6,36.4,30.06,West,270,3.3,4.6,56,0.00,,BKN,0.02,WeatherDisplay:10.37,2013-05-13 20:38:00,
2013-05-13 16:43:00,52.3,34.7,30.06,WNW,292,2.4,5.8,51,0.00,,BKN,0.02,WeatherDisplay:10.37,2013-05-13 20:43:00,
2013-05-13 16:48:00,51.4,34.3,30.05,West,270,4.6,5.3,52,0.00,,BKN,0.02,WeatherDisplay:10.37,2013-05-13 20:48:00,
2013-05-13 16:53:00,51.1,35.5,30.05,NW,315,2.5,3.5,55,0.00,,BKN,0.02,WeatherDisplay:10.37,2013-05-13 20:53:00,
2013-05-13 16:58:00,51.6,35.0,30.06,NNW,338,3.3,4.6,53,0.00,,BKN,0.02,WeatherDisplay:10.37,2013-05-13 20:58:00,
2013-05-13 17:03:00,54.0,35.8,30.06,NNW,338,4.3,5.8,50,0.00,,BKN,0.02,WeatherDisplay:10.37,2013-05-13 21:03:00,
2013-05-13 17:08:00,54.0,33.7,30.06,West,270,5.4,8.1,46,0.00,,BKN,0.02,WeatherDisplay:10.37,2013-05-13 21:08:00,
2013-05-13 17:13:00,53.6,33.8,30.06,NW,315,4.6,5.8,47,0.00,,BKN,0.02,WeatherDisplay:10.37,2013-05-13 21:13:00,
2013-05-13 17:18:00,51.8,33.7,30.06,NNE,22,2.7,4.6,50,0.00,,BKN,0.02,WeatherDisplay:10.37,2013-05-13 21:18:00,
2013-05-13 17:23:00,51.4,32.9,30.06,NW,315,4.9,6.9,49,0.00,,BKN,0.02,WeatherDisplay:10.37,2013-05-13 21:23:00,
2013-05-13 17:28:00,52.5,31.8,30.06,NW,315,6.4,6.9,45,0.00,,BKN,0.02,WeatherDisplay:10.37,2013-05-13 21:28:00,
2013-05-13 17:33:00,52.9,33.2,30.06,NW,315,4.6,5.8,47,0.00,,BKN,0.02,WeatherDisplay:10.37,2013-05-13 21:33:00,
2013-05-13 17:38:00,52.3,32.1,30.06,WNW,292,3.2,4.6,46,0.00,,BKN,0.02,WeatherDisplay:10.37,2013-05-13 21:38:00,
2013-05-13 17:43:00,51.3,32.8,30.06,NW,315,3.6,6.9,49,0.00,,BKN,0.02,WeatherDisplay:10.37,2013-05-13 21:43:00,
2013-05-13 17:48:00,51.1,34.1,30.06,West,270,4.4,4.6,52,0.00,,BKN,0.02,WeatherDisplay:10.37,2013-05-13 21:48:00,
2013-05-13 17:53:00,51.4,32.9,30.06,NW,315,3.3,4.6,49,0.00,,BKN,0.02,WeatherDisplay:10.37,2013-05-13 21:53:00,
2013-05-13 17:58:00,51.4,32.9,30.06,West,270,6.1,6.9,49,0.00,,BKN,0.02,WeatherDisplay:10.37,2013-05-13 21:58:00,
2013-05-13 18:03:00,51.1,32.6,30.06,WNW,292,1.9,3.5,49,0.00,,BKN,0.02,WeatherDisplay:10.37,2013-05-13 22:03:00,
2013-05-13 18:08:00,51.6,32.0,30.06,NNW,338,5.0,5.0,47,0.00,,BKN,0.02,WeatherDisplay:10.37,2013-05-13 22:08:00,
2013-05-13 18:13:00,51.4,32.3,30.06,West,270,5.5,8.1,48,0.00,,BKN,0.02,WeatherDisplay:10.37,2013-05-13 22:13:00,
2013-05-13 18:18:00,51.1,31.6,30.06,WNW,292,3.6,4.6,47,0.00,,BKN,0.02,WeatherDisplay:10.37,2013-05-13 22:18:00,
2013-05-13 18:23:00,50.4,31.4,30.06,WSW,248,6.0,6.9,48,0.00,,BKN,0.02,WeatherDisplay:10.37,2013-05-13 22:23:00,
2013-05-13 18:28:00,50.2,31.2,30.06,NW,315,2.1,3.5,48,0.00,,BKN,0.02,WeatherDisplay:10.37,2013-05-13 22:28:00,
2013-05-13 18:33:00,49.8,31.4,30.06,NW,315,2.8,4.6,49,0.00,,BKN,0.02,WeatherDisplay:10.37,2013-05-13 22:33:00,
2013-05-13 18:38:00,50.4,31.4,30.06,NNE,22,3.7,6.3,48,0.00,,BKN,0.02,WeatherDisplay:10.37,2013-05-13 22:38:00,
2013-05-13 18:43:00,49.8,29.8,30.06,NNW,338,3.1,6.3,46,0.00,,BKN,0.02,WeatherDisplay:10.37,2013-05-13 22:43:00,
2013-05-13 18:48:00,49.3,30.9,30.06,NW,315,2.4,5.8,49,0.00,,BKN,0.02,WeatherDisplay:10.37,2013-05-13 22:48:00,
2013-05-13 18:54:00,48.7,30.9,30.06,NW,315,2.3,3.5,50,0.00,,BKN,0.02,WeatherDisplay:10.37,2013-05-13 22:54:00,
2013-05-13 18:59:00,48.2,30.4,30.06,NW,315,2.5,4.6,50,0.00,,BKN,0.02,WeatherDisplay:10.37,2013-05-13 22:59:00,
2013-05-13 19:04:00,48.2,31.4,30.06,West,270,4.5,6.9,52,0.00,,BKN,0.02,WeatherDisplay:10.37,2013-05-13 23:04:00,
2013-05-13 19:09:00,48.4,30.1,30.06,NW,315,3.5,4.6,49,0.00,,BKN,0.02,WeatherDisplay:10.37,2013-05-13 23:09:00,
2013-05-13 19:14:00,48.6,30.3,30.07,NW,315,2.9,3.5,49,0.00,,BKN,0.02,WeatherDisplay:10.37,2013-05-13 23:14:00,
2013-05-13 19:19:00,48.7,29.9,30.07,NW,315,4.0,6.9,48,0.00,,BKN,0.02,WeatherDisplay:10.37,2013-05-13 23:19:00,
2013-05-13 19:24:00,48.7,29.4,30.07,West,270,3.9,4.6,47,0.00,,BKN,0.02,WeatherDisplay:10.37,2013-05-13 23:24:00,
2013-05-13 19:29:00,48.4,28.0,30.07,NW,315,3.5,4.6,45,0.00,,BKN,0.02,WeatherDisplay:10.37,2013-05-13 23:29:00,
2013-05-13 19:34:00,48.4,28.0,30.07,NNW,338,2.0,2.3,45,0.00,,BKN,0.02,WeatherDisplay:10.37,2013-05-13 23:34:00,
2013-05-13 19:39:00,48.0,27.6,30.07,WNW,292,3.5,4.6,45,0.00,,BKN,0.02,WeatherDisplay:10.37,2013-05-13 23:39:00,
2013-05-13 19:44:00,47.7,27.9,30.07,NNW,338,4.1,5.8,46,0.00,,BKN,0.02,WeatherDisplay:10.37,2013-05-13 23:44:00,
2013-05-13 19:49:00,47.3,27.5,30.07,West,270,1.8,3.5,46,0.00,,BKN,0.02,WeatherDisplay:10.37,2013-05-13 23:49:00,
2013-05-13 19:54:00,47.1,28.4,30.07,NW,315,2.7,3.7,48,0.00,,BKN,0.02,WeatherDisplay:10.37,2013-05-13 23:54:00,
2013-05-13 19:59:00,47.1,28.9,30.07,NW,315,0.8,3.2,49,0.00,,BKN,0.02,WeatherDisplay:10.37,2013-05-13 23:59:00,
2013-05-13 20:04:00,46.6,28.4,30.07,NW,315,2.2,2.3,49,0.00,,BKN,0.02,WeatherDisplay:10.37,2013-05-14 00:04:00,
2013-05-13 20:09:00,46.2,28.1,30.07,NNW,338,4.8,5.8,49,0.00,,BKN,0.02,WeatherDisplay:10.37,2013-05-14 00:09:00,
2013-05-13 20:14:00,46.2,28.1,30.08,WNW,292,2.6,3.7,49,0.00,,BKN,0.02,WeatherDisplay:10.37,2013-05-14 00:14:00,
2013-05-13 20:19:00,46.0,28.9,30.08,West,270,1.9,2.3,51,0.00,,BKN,0.02,WeatherDisplay:10.37,2013-05-14 00:19:00,
2013-05-13 20:24:00,45.5,29.3,30.08,West,270,1.2,2.3,53,0.00,,BKN,0.02,WeatherDisplay:10.37,2013-05-14 00:24:00,
2013-05-13 20:29:00,45.3,29.2,30.08,West,270,1.7,2.3,53,0.00,,BKN,0.02,WeatherDisplay:10.37,2013-05-14 00:29:00,
2013-05-13 20:34:00,44.8,29.2,30.08,West,270,1.6,2.3,54,0.00,,BKN,0.02,WeatherDisplay:10.37,2013-05-14 00:34:00,
2013-05-13 20:39:00,44.6,29.4,30.08,NW,315,1.3,2.3,55,0.00,,BKN,0.02,WeatherDisplay:10.37,2013-05-14 00:39:00,
2013-05-13 20:44:00,44.1,29.4,30.08,NW,315,1.6,2.2,56,0.00,,BKN,0.02,WeatherDisplay:10.37,2013-05-14 00:44:00,
2013-05-13 20:49:00,43.9,30.5,30.09,SW,225,0.6,1.2,59,0.00,,BKN,0.02,WeatherDisplay:10.37,2013-05-14 00:49:00,
2013-05-13 20:54:00,43.7,30.3,30.09,SW,225,0.0,0.0,59,0.00,,BKN,0.02,WeatherDisplay:10.37,2013-05-14 00:54:00,
2013-05-13 20:59:00,43.3,29.5,30.09,SW,225,0.0,0.0,58,0.00,,BKN,0.02,WeatherDisplay:10.37,2013-05-14 00:59:00,
2013-05-13 21:04:00,43.0,29.2,30.09,SW,225,0.0,0.0,58,0.00,,BKN,0.02,WeatherDisplay:10.37,2013-05-14 01:04:00,
2013-05-13 21:09:00,42.6,29.7,30.09,SW,225,0.0,0.0,60,0.00,,BKN,0.02,WeatherDisplay:10.37,2013-05-14 01:09:00,
2013-05-13 21:14:00,42.3,30.2,30.09,SW,225,0.0,0.0,62,0.00,,BKN,0.02,WeatherDisplay:10.37,2013-05-14 01:14:00,
2013-05-13 21:19:00,42.1,31.6,30.09,SW,225,0.0,0.0,66,0.00,,BKN,0.02,WeatherDisplay:10.37,2013-05-14 01:19:00,
2013-05-13 21:24:00,41.7,32.3,30.09,SW,225,0.0,0.0,69,0.00,,BKN,0.02,WeatherDisplay:10.37,2013-05-14 01:24:00,
2013-05-13 21:29:00,41.5,32.1,30.09,SW,225,0.0,0.0,69,0.00,,BKN,0.02,WeatherDisplay:10.37,2013-05-14 01:29:00,
2013-05-13 21:34:00,41.2,33.5,30.09,SW,225,1.1,1.2,74,0.00,,BKN,0.02,WeatherDisplay:10.37,2013-05-14 01:34:00,
2013-05-13 21:39:00,41.0,32.7,30.10,SW,225,0.0,0.0,72,0.00,,BKN,0.02,WeatherDisplay:10.37,2013-05-14 01:39:00,
2013-05-13 21:44:00,40.8,32.5,30.10,SW,225,0.0,0.0,72,0.00,,BKN,0.02,WeatherDisplay:10.37,2013-05-14 01:44:00,
2013-05-13 21:49:00,40.6,32.3,30.10,SW,225,0.0,0.0,72,0.00,,BKN,0.02,WeatherDisplay:10.37,2013-05-14 01:49:00,
2013-05-13 21:54:00,40.6,32.6,30.10,SW,225,0.0,0.0,73,0.00,,BKN,0.02,WeatherDisplay:10.37,2013-05-14 01:54:00,
2013-05-13 21:59:00,40.5,32.5,30.11,SW,225,0.0,0.0,73,0.00,,BKN,0.02,WeatherDisplay:10.37,2013-05-14 01:59:00,
2013-05-13 22:04:00,40.5,33.5,30.11,SW,225,0.0,0.0,76,0.00,,BKN,0.02,WeatherDisplay:10.37,2013-05-14 02:04:00,
2013-05-13 22:09:00,40.5,33.2,30.11,SW,225,0.0,0.0,75,0.00,,BKN,0.02,WeatherDisplay:10.37,2013-05-14 02:09:00,
2013-05-13 22:14:00,40.5,33.5,30.11,SW,225,0.0,0.0,76,0.00,,BKN,0.02,WeatherDisplay:10.37,2013-05-14 02:14:00,
2013-05-13 22:19:00,40.5,33.9,30.11,SW,225,0.0,0.0,77,0.00,,BKN,0.02,WeatherDisplay:10.37,2013-05-14 02:19:00,
2013-05-13 22:24:00,40.5,34.2,30.11,SW,225,0.0,0.0,78,0.00,,BKN,0.02,WeatherDisplay:10.37,2013-05-14 02:24:00,
2013-05-13 22:29:00,40.8,34.8,30.11,SW,225,1.7,2.2,79,0.00,,BKN,0.02,WeatherDisplay:10.37,2013-05-14 02:29:00,
2013-05-13 22:34:00,41.0,34.7,30.11,SW,225,1.3,2.2,78,0.00,,BKN,0.02,WeatherDisplay:10.37,2013-05-14 02:34:00,
2013-05-13 22:39:00,41.4,34.4,30.12,West,270,2.0,2.3,76,0.00,,BKN,0.02,WeatherDisplay:10.37,2013-05-14 02:39:00,
2013-05-13 22:44:00,41.7,34.7,30.12,WNW,292,2.6,3.5,76,0.00,,BKN,0.02,WeatherDisplay:10.37,2013-05-14 02:44:00,
2013-05-13 22:49:00,42.1,34.4,30.12,WNW,292,2.8,3.5,74,0.00,,BKN,0.02,WeatherDisplay:10.37,2013-05-14 02:49:00,
2013-05-13 22:54:00,42.4,34.4,30.12,West,270,2.3,3.2,73,0.00,,BKN,0.02,WeatherDisplay:10.37,2013-05-14 02:54:00,
2013-05-13 22:59:00,43.0,33.9,30.12,West,270,3.2,3.5,70,0.00,,BKN,0.02,WeatherDisplay:10.37,2013-05-14 02:59:00,
2013-05-13 23:04:00,43.2,34.1,30.12,West,270,2.7,3.5,70,0.00,,BKN,0.02,WeatherDisplay:10.37,2013-05-14 03:04:00,
2013-05-13 23:09:00,43.2,33.7,30.12,WNW,292,3.6,3.7,69,0.00,,BKN,0.02,WeatherDisplay:10.37,2013-05-14 03:09:00,
2013-05-13 23:14:00,43.3,33.4,30.13,WNW,292,3.0,3.5,68,0.00,,BKN,0.02,WeatherDisplay:10.37,2013-05-14 03:14:00,
2013-05-13 23:19:00,43.3,34.2,30.13,West,270,2.7,2.7,70,0.00,,BKN,0.02,WeatherDisplay:10.37,2013-05-14 03:19:00,
2013-05-13 23:24:00,43.0,34.2,30.12,West,270,2.1,2.3,71,0.00,,BKN,0.02,WeatherDisplay:10.37,2013-05-14 03:24:00,
2013-05-13 23:29:00,42.8,34.0,30.12,West,270,1.8,2.3,71,0.00,,BKN,0.02,WeatherDisplay:10.37,2013-05-14 03:29:00,
2013-05-13 23:34:00,42.6,33.9,30.12,West,270,1.9,2.3,71,0.00,,BKN,0.02,WeatherDisplay:10.37,2013-05-14 03:34:00,
2013-05-13 23:39:00,42.3,33.9,30.12,West,270,1.4,1.7,72,0.00,,BKN,0.02,WeatherDisplay:10.37,2013-05-14 03:39:00,
2013-05-13 23:44:00,41.9,33.5,30.12,West,270,2.3,4.2,72,0.00,,BKN,0.02,WeatherDisplay:10.37,2013-05-14 03:44:00,
2013-05-13 23:49:00,41.7,33.3,30.13,West,270,2.4,3.5,72,0.00,,BKN,0.02,WeatherDisplay:10.37,2013-05-14 03:49:00,
2013-05-13 23:54:00,41.7,34.0,30.13,West,270,1.5,2.3,74,0.00,,BKN,0.02,WeatherDisplay:10.37,2013-05-14 03:54:00,
2013-05-13 23:59:00,41.4,33.7,30.13,West,270,1.6,3.5,74,0.00,,BKN,0.02,WeatherDisplay:10.37,2013-05-14 03:59:00,